EDDCEHBK

Guest
Details From EDDC - Dresden
To EHBK - Maastricht
Flight Number -
Tags Generated
Created
Modified
Stats Distance 302 nm / 560 km
Max Altitude 0 ft / 0 m
Waypoints 3
Social Downloads 1
Likes 0
Share VATSIM

Download

Looking for another format? Having issues loading an existing format? Contact us
Advertisement - Login to hide

Notes

Generated

Route

EDDC GIX78 EHBK

ID Type Via Altitude Latitude Longitude Leg Dist Tot Dist Heading (true) Name
O EDDC APT - 0 ft / 0 m 51.12425˚ 13.75544˚ - 0 nm - -
GIX78 FIX - 0 ft / 0 m 50.94475˚ 6.25413˚ 283 nm 283 nm 271° / 265° -
O EHBK APT - 0 ft / 0 m 50.90184˚ 5.76005˚ 18 nm 302 nm 262° / 262° -

Altitude Profile

Advertisement - Login to hide

Weather


0- 5 10 15 20 25 30 35+ Temperature / ° C

Clouds and Precipitation
Forecast for 2018-05-25 00:00 UTC. Updated 5 hours ago

Ground ~20,000 ft ~40,000 ft Winds

EDDC

Details ICAO EDDC (DRS)
Name Dresden
Region Germany - Civil
Timezone Europe/Berlin (UTC+2.0)
Stats Elevation 752 ft / 229 m (AMSL)
Location 51.134366° 13.768065°
Runways 1
Magnetic Variation 3.856° E

METAR

EDDC 250350Z 05003KT CAVOK 15/10 Q1020 NOSIG

Decode

TAF

TAF EDDC 242300Z 2500/2524 07006KT CAVOK BECMG 2508/2510 07011KT BECMG 2516/2518 07006KT

Decode

Departure Runways

ID Width Length Bearing (true) Bearing (mag) Surface Threshold Offset Overrun Length
04 197 ft / 60 m 9,348 ft / 2,849 m 40.74° 36.88° Concrete 0 ft / 0 m 0 ft / 0 m
22 197 ft / 60 m 9,348 ft / 2,849 m 220.76° 216.90° Concrete 984 ft / 300 m 0 ft / 0 m

EHBK

Details ICAO EHBK (MST)
Name Maastricht
Region Netherlands
Timezone Europe/Amsterdam (UTC+2.0)
Stats Elevation 375 ft / 114 m (AMSL)
Location 50.911305° 5.769639°
Runways 1
Magnetic Variation 1.576° E

METAR

EHBK 250355Z AUTO 14003KT 5000 BR NCD 13/13 Q1017 TEMPO 2500

Decode

TAF

TAF EHBK 242317Z 2500/2606 07005KT 6000 NSC BECMG 2500/2502 3000 BR PROB40 TEMPO 2503/2506 0800 BCFG BKN002 BECMG 2505/2507 CAVOK PROB30 TEMPO 2513/2517 4000 SHRA TSRA SCT060CB PROB30 2601/2604 5000 BR

Decode

Destination Runways

ID Width Length Bearing (true) Bearing (mag) Surface Threshold Offset Overrun Length
03 148 ft / 45 m 8,200 ft / 2,499 m 32.55° 30.97° Asphalt 820 ft / 250 m 0 ft / 0 m
21 148 ft / 45 m 8,200 ft / 2,499 m 212.56° 210.98° Asphalt 820 ft / 250 m 0 ft / 0 m

Approach Navaids

Runway Type Ident Frequency Range Bearing (true) Bearing (mag) Slope Elevation
03 Localiser BKZ 111.55 MHz 18 nm / 33 km 32.57° 30.99° - 375 ft / 114 m (AMSL)
03 Glidescope BKZ 111.55 MHz 15 nm / 28 km 32.57° 30.99° 3.00° 375 ft / 114 m (AMSL)
03 DME BKZ 111.55 MHz 18 nm / 33 km - - - 375 ft / 114 m (AMSL)
21 Localiser BKN 111.55 MHz 18 nm / 33 km 212.55° 210.97° - 375 ft / 114 m (AMSL)
21 Glidescope BKN 111.55 MHz 15 nm / 28 km 212.55° 210.97° 3.00° 375 ft / 114 m (AMSL)
21 DME BKN 111.55 MHz 18 nm / 33 km - - - 375 ft / 114 m (AMSL)